createdAt,value
2023-05-14T00:01:07.640Z,101208.69
2023-05-14T00:04:12.900Z,101212.59
2023-05-14T00:07:18.590Z,101203.83
2023-05-14T00:10:26.213Z,101215.47
2023-05-14T00:13:32.303Z,101212.52
2023-05-14T00:16:38.153Z,101209.44
2023-05-14T00:19:46.397Z,101218.53
2023-05-14T00:22:51.899Z,101214.92
2023-05-14T00:25:57.302Z,101213.37
2023-05-14T00:29:02.634Z,101203.23
2023-05-14T00:32:09.140Z,101210.76
2023-05-14T00:35:16.011Z,101210.92
2023-05-14T00:38:22.780Z,101201.45
2023-05-14T00:41:28.273Z,101202.06
2023-05-14T00:44:34.352Z,101194.88
2023-05-14T00:47:45.949Z,101204.47
2023-05-14T00:50:51.113Z,101201.34
2023-05-14T00:53:57.635Z,101198.39
2023-05-14T00:57:03.701Z,101204.02
2023-05-14T01:00:10.048Z,101206.38
2023-05-14T01:03:14.850Z,101207.41
2023-05-14T01:07:08.626Z,101207.58
2023-05-14T01:10:28.747Z,101206.70
2023-05-14T01:13:59.514Z,101201.71
2023-05-14T01:17:08.728Z,101206.66
2023-05-14T01:20:15.905Z,101202.87
2023-05-14T01:23:21.859Z,101195.52
2023-05-14T01:26:28.372Z,101200.52
2023-05-14T01:29:38.241Z,101198.98
2023-05-14T01:32:45.166Z,101208.41
2023-05-14T01:35:51.590Z,101205.52
2023-05-14T01:38:58.400Z,101198.70
2023-05-14T01:42:04.345Z,101202.16
2023-05-14T01:45:11.518Z,101204.42
2023-05-14T01:48:19.803Z,101208.53
2023-05-14T01:51:25.693Z,101207.66
2023-05-14T01:54:30.589Z,101204.09
2023-05-14T01:57:36.806Z,101198.98
2023-05-14T02:00:41.945Z,101201.77
2023-05-14T02:03:49.946Z,101199.91
2023-05-14T02:06:55.428Z,101202.20
2023-05-14T02:10:01.414Z,101198.62
2023-05-14T02:13:07.923Z,101199.17
2023-05-14T02:16:14.619Z,101193.69
2023-05-14T02:19:21.699Z,101202.79
2023-05-14T02:22:26.903Z,101205.03
2023-05-14T02:25:31.907Z,101201.95
2023-05-14T02:28:37.023Z,101204.03
2023-05-14T02:31:44.673Z,101197.34
2023-05-14T02:34:50.993Z,101201.29
2023-05-14T02:37:57.183Z,101203.37
2023-05-14T02:41:02.280Z,101203.37
2023-05-14T02:44:08.003Z,101196.17
2023-05-14T02:47:13.660Z,101203.58
2023-05-14T02:50:20.117Z,101199.99
2023-05-14T02:53:24.944Z,101212.02
2023-05-14T02:56:30.688Z,101207.42
2023-05-14T02:59:39.434Z,101207.25
2023-05-14T03:02:46.921Z,101204.53
2023-05-14T03:05:54.944Z,101196.33
2023-05-14T03:09:01.770Z,101200.13
2023-05-14T03:12:07.893Z,101205.98
2023-05-14T03:15:14.381Z,101202.88
2023-05-14T03:18:20.305Z,101206.52
2023-05-14T03:21:25.624Z,101201.53
2023-05-14T03:24:31.910Z,101203.97
2023-05-14T03:27:37.408Z,101204.98
2023-05-14T03:30:44.650Z,101212.90
2023-05-14T03:33:51.514Z,101207.94
2023-05-14T03:36:57.906Z,101209.49
2023-05-14T03:40:03.861Z,101214.13
2023-05-14T03:43:09.365Z,101217.91
2023-05-14T03:46:15.228Z,101214.48
2023-05-14T03:49:21.844Z,101224.42
2023-05-14T03:52:27.334Z,101220.29
2023-05-14T03:55:37.317Z,101214.09
2023-05-14T03:58:43.194Z,101223.86
2023-05-14T04:01:48.525Z,101226.09
2023-05-14T04:04:54.104Z,101220.37
2023-05-14T04:08:05.079Z,101222.05
2023-05-14T04:11:11.818Z,101215.66
2023-05-14T04:14:20.521Z,101215.62
2023-05-14T04:17:25.199Z,101214.06
2023-05-14T04:20:30.080Z,101218.66
2023-05-14T04:23:38.593Z,101209.34
2023-05-14T04:26:43.913Z,101209.77
2023-05-14T04:29:49.337Z,101214.03
2023-05-14T04:32:55.738Z,101212.41
2023-05-14T04:36:02.133Z,101217.14
2023-05-14T04:39:07.711Z,101215.70
2023-05-14T04:42:14.450Z,101210.77
2023-05-14T04:45:21.011Z,101216.91
2023-05-14T04:48:25.634Z,101215.95
2023-05-14T04:51:32.191Z,101206.55
2023-05-14T04:54:39.326Z,101203.14
2023-05-14T04:57:44.986Z,101206.09
2023-05-14T05:00:51.688Z,101208.67
2023-05-14T05:03:58.036Z,101200.20
2023-05-14T05:07:05.359Z,101198.63
2023-05-14T05:10:13.328Z,101203.75
2023-05-14T05:13:19.249Z,101198.91
2023-05-14T05:16:26.330Z,101203.34
2023-05-14T05:19:43.104Z,101195.79
2023-05-14T05:22:41.211Z,101200.87
2023-05-14T05:25:46.547Z,101193.80
2023-05-14T05:28:52.303Z,101189.89
2023-05-14T05:31:57.912Z,101199.44
2023-05-14T05:35:03.588Z,101194.86
2023-05-14T05:38:08.955Z,101203.07
2023-05-14T05:41:15.257Z,101200.05
2023-05-14T05:44:21.360Z,101195.83
2023-05-14T05:47:28.032Z,101192.83
2023-05-14T05:50:33.601Z,101197.89
2023-05-14T05:53:40.168Z,101191.50
2023-05-14T05:56:45.912Z,101188.37
2023-05-14T05:59:51.258Z,101194.58
2023-05-14T06:02:57.117Z,101192.50
2023-05-14T06:06:03.289Z,101190.06
2023-05-14T06:09:13.078Z,101188.70
2023-05-14T06:12:20.469Z,101178.47
2023-05-14T06:15:27.245Z,101176.56
2023-05-14T06:18:32.758Z,101174.83
2023-05-14T06:21:39.540Z,101170.53
2023-05-14T06:24:45.434Z,101162.40
2023-05-14T06:27:52.554Z,101170.94
2023-05-14T06:30:57.804Z,101177.30
2023-05-14T06:34:03.744Z,101180.60
2023-05-14T06:37:10.761Z,101170.83
2023-05-14T06:40:16.884Z,101162.96
2023-05-14T06:43:24.870Z,101163.98
2023-05-14T06:46:31.016Z,101158.47
2023-05-14T06:49:36.881Z,101168.26
2023-05-14T06:52:43.213Z,101155.80
2023-05-14T06:55:50.432Z,101149.11
2023-05-14T06:58:57.212Z,101157.83
2023-05-14T07:02:03.603Z,101158.20
2023-05-14T07:05:10.057Z,101159.09
2023-05-14T07:08:17.238Z,101154.09
2023-05-14T07:11:23.903Z,101154.19
2023-05-14T07:14:32.552Z,101155.94
2023-05-14T07:17:38.292Z,101145.66
2023-05-14T07:20:44.444Z,101148.78
2023-05-14T07:23:51.050Z,101155.56
2023-05-14T07:26:55.876Z,101143.64
2023-05-14T07:30:02.168Z,101149.55
2023-05-14T07:33:08.816Z,101140.64
2023-05-14T07:36:15.671Z,101151.25
2023-05-14T07:39:21.221Z,101144.26
2023-05-14T07:42:35.865Z,101136.97
2023-05-14T07:45:34.865Z,101127.74
2023-05-14T07:48:40.806Z,101132.47
2023-05-14T07:51:48.568Z,101130.59
2023-05-14T07:54:56.447Z,101138.45
2023-05-14T07:58:04.329Z,101127.48
2023-05-14T08:01:11.197Z,101122.13
2023-05-14T08:04:18.365Z,101123.72
2023-05-14T08:07:23.333Z,101128.64
2023-05-14T08:10:29.740Z,101122.66
2023-05-14T08:13:35.871Z,101124.23
2023-05-14T08:16:41.000Z,101125.94
2023-05-14T08:19:48.947Z,101119.91
2023-05-14T08:22:54.810Z,101125.34
2023-05-14T08:26:00.948Z,101114.87
2023-05-14T08:29:10.785Z,101119.33
2023-05-14T08:32:23.498Z,101106.26
2023-05-14T08:35:24.393Z,101104.86
2023-05-14T08:38:30.013Z,101110.27
2023-05-14T08:41:37.413Z,101105.05
2023-05-14T08:44:58.191Z,101098.13
2023-05-14T08:48:08.192Z,101084.96
2023-05-14T08:51:13.365Z,101078.71
2023-05-14T08:54:23.359Z,101082.55
2023-05-14T08:57:32.008Z,101083.58
2023-05-14T09:00:37.929Z,101084.58
2023-05-14T09:03:43.361Z,101070.84
2023-05-14T09:06:51.570Z,101081.24
2023-05-14T09:09:58.521Z,101067.01
2023-05-14T09:13:03.583Z,101070.78
2023-05-14T09:16:09.679Z,101055.94
2023-05-14T09:19:16.365Z,101057.09
2023-05-14T09:22:28.988Z,101047.78
2023-05-14T09:25:34.374Z,101045.58
2023-05-14T09:28:41.221Z,101057.65
2023-05-14T09:31:47.961Z,101053.80
2023-05-14T09:34:54.391Z,101044.74
2023-05-14T09:38:01.714Z,101049.76
2023-05-14T09:41:07.626Z,101037.95
2023-05-14T09:44:12.340Z,101036.36
2023-05-14T09:47:17.507Z,101034.70
2023-05-14T09:50:25.631Z,101030.56
2023-05-14T09:53:34.623Z,101030.01
2023-05-14T09:56:41.492Z,101026.59
2023-05-14T09:59:48.733Z,101023.84
2023-05-14T10:02:55.884Z,101034.53
2023-05-14T10:06:03.534Z,101025.62
2023-05-14T10:09:14.164Z,101027.97
2023-05-14T10:12:20.575Z,101030.76
2023-05-14T10:15:30.472Z,101023.43
2023-05-14T10:18:38.377Z,101013.87
2023-05-14T10:21:44.668Z,101022.45
2023-05-14T10:24:49.861Z,101024.45
2023-05-14T10:27:55.106Z,101024.96
2023-05-14T10:31:02.116Z,101018.84
2023-05-14T10:34:08.596Z,101017.27
2023-05-14T10:37:17.933Z,101019.03
2023-05-14T10:40:27.449Z,101013.77
2023-05-14T10:43:33.260Z,101014.98
2023-05-14T10:46:39.145Z,101007.44
2023-05-14T10:49:45.641Z,101007.52
2023-05-14T10:52:51.360Z,101003.91
2023-05-14T10:55:58.579Z,101002.22
2023-05-14T10:59:05.000Z,101001.67
2023-05-14T11:02:14.957Z,100998.55
2023-05-14T11:05:25.620Z,101004.62
2023-05-14T11:08:32.109Z,101002.16
2023-05-14T11:11:37.866Z,100995.77
2023-05-14T11:14:43.450Z,100996.19
2023-05-14T11:17:48.988Z,100992.59
2023-05-14T11:20:54.763Z,100997.41
2023-05-14T11:24:04.041Z,100993.80
2023-05-14T11:27:08.920Z,101008.23
2023-05-14T11:30:14.076Z,101013.30
2023-05-14T11:33:20.665Z,101004.69
2023-05-14T11:36:26.140Z,101002.16
2023-05-14T11:39:34.494Z,101002.08
2023-05-14T11:42:42.754Z,101004.58
2023-05-14T11:45:50.312Z,100997.75
2023-05-14T11:48:56.647Z,100999.44
2023-05-14T11:52:02.055Z,101006.05
2023-05-14T11:55:08.080Z,101000.25
2023-05-14T11:58:13.475Z,100998.41
2023-05-14T12:01:20.732Z,101003.06
2023-05-14T12:04:31.027Z,101003.86
2023-05-14T12:07:38.022Z,100997.12
2023-05-14T12:10:43.193Z,100998.80
2023-05-14T12:13:51.075Z,101002.72
2023-05-14T12:16:57.845Z,100994.03
2023-05-14T12:20:04.642Z,100985.70
2023-05-14T12:23:10.292Z,100982.70
2023-05-14T12:26:23.704Z,100969.63
2023-05-14T12:29:29.293Z,100970.16
2023-05-14T12:32:34.989Z,100965.89
2023-05-14T12:35:39.945Z,100970.36
2023-05-14T12:38:47.605Z,100971.28
2023-05-14T12:41:52.809Z,100967.81
2023-05-14T12:44:59.790Z,100972.08
2023-05-14T12:48:05.194Z,100966.00
2023-05-14T12:51:10.977Z,100962.71
2023-05-14T12:54:18.162Z,100974.53
2023-05-14T12:57:24.127Z,100974.23
2023-05-14T13:00:31.148Z,100966.33
2023-05-14T13:03:37.394Z,100966.60
2023-05-14T13:06:46.236Z,100972.97
2023-05-14T13:09:52.557Z,100972.83
2023-05-14T13:12:59.539Z,100976.45
2023-05-14T13:16:05.902Z,100978.16
2023-05-14T13:19:13.352Z,100970.82
2023-05-14T13:22:18.322Z,100968.55
2023-05-14T13:25:24.849Z,100970.41
2023-05-14T13:28:30.678Z,100979.22
2023-05-14T13:31:36.959Z,100977.98
2023-05-14T13:34:43.469Z,100983.65
2023-05-14T13:37:48.273Z,100989.19
2023-05-14T13:40:53.693Z,101000.63
2023-05-14T13:43:59.744Z,100999.33
2023-05-14T13:47:06.560Z,100995.81
2023-05-14T13:50:13.189Z,101007.47
2023-05-14T13:53:18.833Z,101001.97
2023-05-14T13:56:26.614Z,100994.67
2023-05-14T13:59:33.152Z,100990.66
2023-05-14T14:02:38.663Z,100985.67
2023-05-14T14:05:44.964Z,100991.48
2023-05-14T14:08:51.325Z,100984.90
2023-05-14T14:11:57.896Z,100981.70
2023-05-14T14:15:06.197Z,100978.27
2023-05-14T14:18:11.770Z,100975.22
2023-05-14T14:21:18.031Z,100974.81
2023-05-14T14:24:24.802Z,100977.61
2023-05-14T14:27:31.152Z,100972.64
2023-05-14T14:30:36.453Z,100965.66
2023-05-14T14:33:42.527Z,100970.77
2023-05-14T14:36:48.034Z,100972.73
2023-05-14T14:39:54.764Z,100978.95
2023-05-14T14:43:00.433Z,100978.38
2023-05-14T14:46:05.936Z,100969.26
2023-05-14T14:49:12.581Z,100964.66
2023-05-14T14:52:18.843Z,100973.20
2023-05-14T14:55:25.006Z,100968.08
2023-05-14T14:58:30.983Z,100968.08
2023-05-14T15:01:36.746Z,100963.69
2023-05-14T15:04:43.737Z,100964.28
2023-05-14T15:07:51.572Z,100962.39
2023-05-14T15:11:00.119Z,100960.66
2023-05-14T15:14:06.076Z,100966.52
2023-05-14T15:17:12.751Z,100968.13
2023-05-14T15:20:11.259Z,100961.57
2023-05-14T15:22:58.656Z,100964.69
2023-05-14T15:25:50.751Z,100967.35
2023-05-14T15:28:37.954Z,100966.40
2023-05-14T15:31:32.919Z,100968.53
2023-05-14T15:34:25.676Z,100971.32
2023-05-14T15:37:31.648Z,100967.22
2023-05-14T15:40:38.000Z,100970.80
2023-05-14T15:43:43.421Z,100970.57
2023-05-14T15:46:49.879Z,100970.57
2023-05-14T15:49:55.978Z,100981.70
2023-05-14T15:53:02.525Z,100971.20
2023-05-14T15:56:11.318Z,100973.28
2023-05-14T15:59:17.280Z,100966.89
2023-05-14T16:02:23.162Z,100967.19
2023-05-14T16:05:29.190Z,100962.77
2023-05-14T16:08:33.930Z,100963.99
2023-05-14T16:11:39.801Z,100963.44
2023-05-14T16:14:44.982Z,100964.56
2023-05-14T16:17:51.615Z,100964.84
2023-05-14T16:20:56.248Z,100971.88
2023-05-14T16:24:03.283Z,100979.58
2023-05-14T16:27:08.131Z,100975.35
2023-05-14T16:30:14.492Z,100970.07
2023-05-14T16:33:20.535Z,100981.28
2023-05-14T16:36:27.348Z,100980.45
2023-05-14T16:39:33.169Z,100982.52
2023-05-14T16:42:39.229Z,100981.55
2023-05-14T16:45:47.036Z,100983.05
2023-05-14T16:48:53.089Z,100983.44
2023-05-14T16:51:59.184Z,100982.87
2023-05-14T16:55:04.312Z,100976.07
2023-05-14T16:58:11.457Z,100978.11
2023-05-14T17:01:18.233Z,100980.67
2023-05-14T17:04:25.963Z,100979.20
2023-05-14T17:07:32.318Z,100986.34
2023-05-14T17:10:39.312Z,100981.14
2023-05-14T17:13:45.138Z,100969.92
2023-05-14T17:16:52.572Z,100974.62
2023-05-14T17:19:58.326Z,100970.94
2023-05-14T17:23:03.872Z,100969.69
2023-05-14T17:26:09.887Z,100969.63
2023-05-14T17:29:10.143Z,100975.56
2023-05-14T17:32:16.890Z,100974.19
2023-05-14T17:35:23.481Z,100971.58
2023-05-14T17:38:32.084Z,100972.28
2023-05-14T17:41:38.429Z,100969.46
2023-05-14T17:44:45.004Z,100970.45
2023-05-14T17:47:52.239Z,100976.46
2023-05-14T17:50:59.012Z,100978.28
2023-05-14T17:54:05.068Z,100981.73
2023-05-14T17:57:11.802Z,100986.92
2023-05-14T18:00:18.398Z,100989.41
2023-05-14T18:03:25.304Z,100987.15
2023-05-14T18:06:30.979Z,100988.76
2023-05-14T18:09:36.356Z,100996.80
2023-05-14T18:12:42.454Z,101001.03
2023-05-14T18:15:48.514Z,101002.67
2023-05-14T18:18:56.361Z,101005.63
2023-05-14T18:22:02.625Z,101006.09
2023-05-14T18:25:10.559Z,101010.19
2023-05-14T18:28:15.736Z,101011.03
2023-05-14T18:31:22.752Z,101008.70
2023-05-14T18:34:29.555Z,101011.92
2023-05-14T18:37:35.680Z,101013.73
2023-05-14T18:40:41.491Z,101011.20
2023-05-14T18:43:47.514Z,101017.28
2023-05-14T18:46:54.766Z,101015.27
2023-05-14T18:50:02.282Z,101009.73
2023-05-14T18:53:09.226Z,101018.00
2023-05-14T18:56:16.157Z,101016.04
2023-05-14T18:59:22.146Z,101016.48
2023-05-14T19:02:27.305Z,101008.67
2023-05-14T19:05:33.167Z,101010.18
2023-05-14T19:08:39.403Z,101012.00
2023-05-14T19:11:49.379Z,101015.27
2023-05-14T19:14:54.466Z,101013.69
2023-05-14T19:18:01.331Z,101013.80
2023-05-14T19:21:09.059Z,101013.59
2023-05-14T19:24:15.472Z,101014.02
2023-05-14T19:27:23.760Z,101012.36
2023-05-14T19:30:30.537Z,101015.58
2023-05-14T19:33:36.518Z,101015.96
2023-05-14T19:36:43.262Z,101013.23
2023-05-14T19:39:49.998Z,101015.48
2023-05-14T19:42:55.489Z,101009.13
2023-05-14T19:46:01.645Z,101016.06
2023-05-14T19:49:08.869Z,101016.45
2023-05-14T19:52:15.587Z,101009.61
2023-05-14T19:55:23.519Z,101014.65
2023-05-14T19:58:32.002Z,101013.66
2023-05-14T20:01:41.170Z,101014.88
2023-05-14T20:04:47.800Z,101024.72
2023-05-14T20:07:55.638Z,101018.55
2023-05-14T20:11:04.152Z,101027.16
2023-05-14T20:14:10.582Z,101014.74
2023-05-14T20:17:17.909Z,101004.22
2023-05-14T20:20:25.811Z,101005.66
2023-05-14T20:23:33.683Z,101005.18
2023-05-14T20:26:39.927Z,101009.70
2023-05-14T20:29:46.460Z,101006.84
2023-05-14T20:32:53.733Z,101007.44
2023-05-14T20:36:01.105Z,101010.27
2023-05-14T20:39:08.498Z,101011.89
2023-05-14T20:42:14.238Z,101003.01
2023-05-14T20:45:21.969Z,101008.91
2023-05-14T20:48:28.985Z,101012.61
2023-05-14T20:51:35.884Z,101018.70
2023-05-14T20:54:41.602Z,101004.62
2023-05-14T20:57:47.560Z,101009.31
2023-05-14T21:00:54.548Z,101005.06
2023-05-14T21:04:01.099Z,101002.69
2023-05-14T21:07:09.806Z,101004.31
2023-05-14T21:10:15.860Z,100999.37
2023-05-14T21:13:21.659Z,100999.25
2023-05-14T21:16:27.483Z,100998.93
2023-05-14T21:19:33.660Z,100999.67
2023-05-14T21:22:41.532Z,100994.03
2023-05-14T21:25:46.966Z,101000.27
2023-05-14T21:28:53.251Z,100998.94
2023-05-14T21:32:00.564Z,100995.03
2023-05-14T21:35:07.403Z,100991.62
2023-05-14T21:38:12.508Z,100991.31
2023-05-14T21:41:17.877Z,101002.48
2023-05-14T21:44:23.662Z,101001.62
2023-05-14T21:47:28.858Z,100998.58
2023-05-14T21:50:35.883Z,101005.12
2023-05-14T21:53:42.016Z,100999.45
2023-05-14T21:56:50.070Z,100994.48
2023-05-14T21:59:55.703Z,100992.28
2023-05-14T22:03:03.193Z,100989.37
2023-05-14T22:06:11.249Z,100983.05
2023-05-14T22:09:18.190Z,100983.41
2023-05-14T22:12:23.950Z,100988.56
2023-05-14T22:15:29.662Z,100990.11
2023-05-14T22:18:36.451Z,100988.40
2023-05-14T22:21:42.638Z,100991.50
2023-05-14T22:24:48.372Z,100999.92
2023-05-14T22:27:54.321Z,100999.59
2023-05-14T22:30:59.927Z,100992.03
2023-05-14T22:34:05.665Z,100994.30
2023-05-14T22:37:11.418Z,100994.30
2023-05-14T22:40:17.084Z,101001.01
2023-05-14T22:43:23.380Z,100990.72
2023-05-14T22:46:29.521Z,100992.45
2023-05-14T22:49:35.264Z,100989.69
2023-05-14T22:52:41.462Z,100985.22
2023-05-14T22:55:46.932Z,100979.05
2023-05-14T22:58:55.021Z,100985.24
2023-05-14T23:02:00.309Z,100978.38
2023-05-14T23:05:06.175Z,100983.86
2023-05-14T23:08:11.504Z,100969.09
2023-05-14T23:11:17.795Z,100975.97
2023-05-14T23:14:24.910Z,100980.60
2023-05-14T23:17:31.804Z,100984.53
2023-05-14T23:20:36.883Z,100970.48
2023-05-14T23:23:42.162Z,100973.89
2023-05-14T23:26:47.441Z,100971.50
2023-05-14T23:29:52.586Z,100968.77
2023-05-14T23:33:00.288Z,100970.82
2023-05-14T23:36:06.552Z,100976.78
2023-05-14T23:39:13.600Z,100975.77
2023-05-14T23:42:18.582Z,100976.04
2023-05-14T23:45:25.301Z,100977.75
2023-05-14T23:48:32.138Z,100981.33
2023-05-14T23:51:38.661Z,100978.93
2023-05-14T23:54:45.114Z,100973.61
2023-05-14T23:57:53.865Z,100973.78
